createdAt,value
2022-11-30T00:01:13.850Z,68.02
2022-11-30T00:03:41.366Z,68.60
2022-11-30T00:06:10.625Z,68.42
2022-11-30T00:08:37.805Z,68.78
2022-11-30T00:11:19.042Z,68.06
2022-11-30T00:13:46.109Z,68.10
2022-11-30T00:16:13.317Z,68.16
2022-11-30T00:18:40.350Z,68.22
2022-11-30T00:21:09.321Z,68.36
2022-11-30T00:23:41.078Z,68.03
2022-11-30T00:26:10.309Z,68.69
2022-11-30T00:28:38.238Z,68.70
2022-11-30T00:31:08.532Z,68.51
2022-11-30T00:33:37.041Z,68.32
2022-11-30T00:36:09.700Z,68.36
2022-11-30T00:38:36.657Z,68.79
2022-11-30T00:41:03.922Z,68.46
2022-11-30T00:43:31.291Z,69.52
2022-11-30T00:45:58.611Z,69.08
2022-11-30T00:48:26.101Z,68.55
2022-11-30T00:50:53.474Z,69.03
2022-11-30T00:53:20.971Z,68.47
2022-11-30T00:55:48.459Z,68.62
2022-11-30T00:58:15.677Z,68.61
2022-11-30T01:00:42.665Z,68.89
2022-11-30T01:03:09.894Z,68.97
2022-11-30T01:05:36.941Z,68.84
2022-11-30T01:08:05.755Z,69.04
2022-11-30T01:10:34.351Z,69.66
2022-11-30T01:13:01.906Z,68.72
2022-11-30T01:15:29.543Z,69.18
2022-11-30T01:17:56.816Z,68.48
2022-11-30T01:20:23.724Z,68.45
2022-11-30T01:22:50.680Z,68.25
2022-11-30T01:25:17.799Z,68.60
2022-11-30T01:27:44.749Z,68.83
2022-11-30T01:30:14.584Z,68.14
2022-11-30T01:32:41.534Z,68.67
2022-11-30T01:35:09.371Z,68.98
2022-11-30T01:37:36.561Z,68.88
2022-11-30T01:40:04.192Z,68.56
2022-11-30T01:42:33.270Z,68.42
2022-11-30T01:45:01.981Z,68.70
2022-11-30T01:47:30.157Z,68.57
2022-11-30T01:50:09.996Z,68.37
2022-11-30T01:52:40.125Z,68.15
2022-11-30T01:55:15.706Z,67.93
2022-11-30T01:57:47.076Z,67.85
2022-11-30T02:00:15.293Z,67.97
2022-11-30T02:02:57.585Z,67.79
2022-11-30T02:05:25.566Z,67.38
2022-11-30T02:07:53.158Z,67.95
2022-11-30T02:10:26.017Z,67.77
2022-11-30T02:13:14.319Z,67.81
2022-11-30T02:15:52.717Z,67.56
2022-11-30T02:18:36.313Z,67.53
2022-11-30T02:21:14.722Z,67.90
2022-11-30T02:24:00.580Z,67.71
2022-11-30T02:26:43.693Z,68.51
2022-11-30T02:29:13.657Z,67.98
2022-11-30T02:31:56.110Z,67.92
2022-11-30T02:34:25.814Z,67.67
2022-11-30T02:36:53.421Z,67.77
2022-11-30T02:39:22.327Z,67.71
2022-11-30T02:41:49.330Z,67.84
2022-11-30T02:44:16.813Z,68.20
2022-11-30T02:47:11.196Z,68.07
2022-11-30T02:49:52.596Z,68.17
2022-11-30T02:52:20.375Z,68.11
2022-11-30T02:54:47.670Z,67.82
2022-11-30T02:57:14.904Z,67.74
2022-11-30T02:59:42.066Z,68.00
2022-11-30T03:02:08.972Z,67.47
2022-11-30T03:04:35.949Z,67.80
2022-11-30T03:07:02.918Z,68.02
2022-11-30T03:09:30.288Z,68.03
2022-11-30T03:11:57.382Z,67.83
2022-11-30T03:14:24.728Z,68.02
2022-11-30T03:16:51.655Z,67.87
2022-11-30T03:19:18.737Z,68.08
2022-11-30T03:21:45.655Z,67.55
2022-11-30T03:24:12.662Z,67.49
2022-11-30T03:26:39.594Z,67.72
2022-11-30T03:29:06.496Z,68.04
2022-11-30T03:31:33.489Z,67.80
2022-11-30T03:34:00.447Z,68.04
2022-11-30T03:36:27.435Z,67.22
2022-11-30T03:38:54.787Z,67.38
2022-11-30T03:41:21.843Z,67.96
2022-11-30T03:43:48.783Z,67.68
2022-11-30T03:46:15.801Z,67.88
2022-11-30T03:48:42.881Z,67.83
2022-11-30T03:51:11.576Z,67.90
2022-11-30T03:53:38.850Z,67.79
2022-11-30T03:56:08.439Z,68.48
2022-11-30T03:58:36.106Z,68.40
2022-11-30T04:01:15.388Z,67.93
2022-11-30T04:03:42.909Z,68.18
2022-11-30T04:06:11.897Z,67.11
2022-11-30T04:08:39.884Z,68.55
2022-11-30T04:11:07.694Z,68.50
2022-11-30T04:13:36.372Z,69.49
2022-11-30T04:16:04.175Z,69.57
2022-11-30T04:18:33.137Z,69.68
2022-11-30T04:21:01.201Z,69.62
2022-11-30T04:23:33.437Z,69.28
2022-11-30T04:26:00.858Z,69.73
2022-11-30T04:28:27.797Z,69.52
2022-11-30T04:30:55.403Z,69.79
2022-11-30T04:33:22.654Z,70.07
2022-11-30T04:35:52.383Z,69.95
2022-11-30T04:38:19.359Z,70.54
2022-11-30T04:40:46.349Z,70.62
2022-11-30T04:43:13.571Z,71.29
2022-11-30T04:45:40.804Z,70.96
2022-11-30T04:48:08.394Z,71.23
2022-11-30T04:50:35.764Z,71.18
2022-11-30T04:53:02.847Z,71.12
2022-11-30T04:55:29.808Z,71.21
2022-11-30T04:57:56.883Z,71.38
2022-11-30T05:00:24.070Z,71.33
2022-11-30T05:02:53.190Z,71.44
2022-11-30T05:05:23.619Z,71.40
2022-11-30T05:08:00.401Z,71.61
2022-11-30T05:10:28.705Z,71.27
2022-11-30T05:12:56.434Z,71.63
2022-11-30T05:15:23.459Z,71.75
2022-11-30T05:17:50.430Z,71.34
2022-11-30T05:20:17.514Z,71.63
2022-11-30T05:22:44.460Z,71.41
2022-11-30T05:25:11.505Z,71.28
2022-11-30T05:27:38.490Z,71.39
2022-11-30T05:30:06.515Z,72.01
2022-11-30T05:32:33.443Z,71.52
2022-11-30T05:35:00.660Z,72.17
2022-11-30T05:37:27.758Z,71.94
2022-11-30T05:39:54.809Z,72.21
2022-11-30T05:42:22.020Z,71.72
2022-11-30T05:44:49.264Z,71.38
2022-11-30T05:47:17.073Z,71.97
2022-11-30T05:49:44.083Z,72.27
2022-11-30T05:52:11.147Z,72.04
2022-11-30T05:54:38.311Z,72.39
2022-11-30T05:57:05.793Z,72.20
2022-11-30T05:59:32.963Z,72.29
2022-11-30T06:02:00.074Z,72.93
2022-11-30T06:04:27.217Z,72.32
2022-11-30T06:06:56.015Z,72.67
2022-11-30T06:09:23.595Z,72.69
2022-11-30T06:11:50.866Z,72.94
2022-11-30T06:14:18.566Z,73.43
2022-11-30T06:16:46.560Z,73.20
2022-11-30T06:19:13.694Z,73.03
2022-11-30T06:21:40.623Z,73.38
2022-11-30T06:24:07.845Z,73.14
2022-11-30T06:26:35.826Z,73.72
2022-11-30T06:29:03.577Z,73.18
2022-11-30T06:31:31.730Z,72.96
2022-11-30T06:33:59.326Z,72.85
2022-11-30T06:36:30.037Z,73.51
2022-11-30T06:39:01.253Z,73.39
2022-11-30T06:41:28.266Z,73.79
2022-11-30T06:43:55.255Z,73.66
2022-11-30T06:46:22.533Z,73.09
2022-11-30T06:48:51.169Z,73.15
2022-11-30T06:51:18.737Z,73.31
2022-11-30T06:53:46.366Z,73.06
2022-11-30T06:56:13.326Z,73.65
2022-11-30T06:58:40.884Z,73.44
2022-11-30T07:01:09.652Z,72.57
2022-11-30T07:03:37.339Z,72.68
2022-11-30T07:06:09.605Z,73.08
2022-11-30T07:08:37.312Z,72.10
2022-11-30T07:11:04.521Z,71.42
2022-11-30T07:13:31.804Z,72.05
2022-11-30T07:15:58.767Z,71.29
2022-11-30T07:18:31.521Z,71.19
2022-11-30T07:21:00.455Z,71.11
2022-11-30T07:23:50.792Z,70.94
2022-11-30T07:26:22.483Z,70.83
2022-11-30T07:28:55.108Z,70.45
2022-11-30T07:31:28.472Z,70.12
2022-11-30T07:33:56.349Z,69.86
2022-11-30T07:36:25.774Z,70.44
2022-11-30T07:38:52.992Z,70.09
2022-11-30T07:41:19.946Z,70.75
2022-11-30T07:43:46.864Z,71.32
2022-11-30T07:46:15.885Z,70.58
2022-11-30T07:48:43.646Z,70.43
2022-11-30T07:51:19.980Z,70.25
2022-11-30T07:53:47.060Z,69.91
2022-11-30T07:56:16.366Z,70.32
2022-11-30T07:58:43.854Z,70.34
2022-11-30T08:01:14.375Z,71.11
2022-11-30T08:03:41.919Z,70.69
2022-11-30T08:06:11.885Z,70.93
2022-11-30T08:08:42.438Z,70.60
2022-11-30T08:11:12.111Z,70.39
2022-11-30T08:13:39.604Z,70.95
2022-11-30T08:16:11.833Z,70.83
2022-11-30T08:18:39.767Z,70.96
2022-11-30T08:21:07.972Z,70.50
2022-11-30T08:23:47.245Z,70.58
2022-11-30T08:26:17.090Z,71.12
2022-11-30T08:28:45.505Z,70.25
2022-11-30T08:31:21.624Z,70.03
2022-11-30T08:33:49.476Z,71.15
2022-11-30T08:36:20.226Z,71.17
2022-11-30T08:38:47.461Z,71.39
2022-11-30T08:41:17.172Z,71.24
2022-11-30T08:43:44.173Z,70.98
2022-11-30T08:46:49.281Z,70.71
2022-11-30T08:54:36.417Z,70.30
2022-11-30T08:57:03.342Z,70.13
2022-11-30T08:59:32.394Z,70.07
2022-11-30T09:01:59.356Z,69.98
2022-11-30T09:04:26.329Z,70.55
2022-11-30T09:06:53.309Z,70.46
2022-11-30T09:09:20.468Z,70.63
2022-11-30T09:11:47.416Z,70.61
2022-11-30T09:14:14.388Z,70.56
2022-11-30T09:16:41.321Z,70.67
2022-11-30T09:19:08.388Z,70.76
2022-11-30T09:21:35.344Z,70.69
2022-11-30T09:24:02.313Z,70.88
2022-11-30T09:26:29.341Z,71.07
2022-11-30T09:28:56.322Z,70.90
2022-11-30T09:31:25.163Z,71.03
2022-11-30T09:33:52.917Z,71.04
2022-11-30T09:36:21.955Z,70.85
2022-11-30T09:38:49.227Z,71.53
2022-11-30T09:41:37.412Z,72.24
2022-11-30T09:44:32.541Z,71.72
2022-11-30T09:47:09.041Z,71.78
2022-11-30T09:49:39.644Z,71.99
2022-11-30T09:52:12.029Z,71.48
2022-11-30T09:54:44.277Z,71.33
2022-11-30T09:57:32.149Z,71.55
2022-11-30T10:00:07.170Z,71.08
2022-11-30T10:02:41.468Z,71.13
2022-11-30T10:05:27.731Z,71.21
2022-11-30T10:08:25.990Z,71.59
2022-11-30T10:10:56.506Z,71.36
2022-11-30T10:13:48.415Z,71.06
2022-11-30T10:16:45.780Z,71.20
2022-11-30T10:19:24.814Z,71.24
2022-11-30T10:22:07.341Z,71.72
2022-11-30T10:25:12.024Z,71.64
2022-11-30T10:27:53.646Z,71.43
2022-11-30T10:30:26.149Z,71.11
2022-11-30T10:32:56.238Z,71.47
2022-11-30T10:35:37.683Z,71.91
2022-11-30T10:38:26.449Z,71.53
2022-11-30T10:40:58.272Z,71.27
2022-11-30T10:43:33.453Z,72.04
2022-11-30T10:46:00.666Z,71.50
2022-11-30T10:48:35.206Z,72.07
2022-11-30T10:51:03.452Z,72.32
2022-11-30T10:53:32.371Z,71.99
2022-11-30T10:56:05.005Z,71.89
2022-11-30T10:58:55.158Z,71.73
2022-11-30T11:01:33.462Z,72.24
2022-11-30T11:04:25.583Z,72.08
2022-11-30T11:06:56.926Z,72.17
2022-11-30T11:09:36.090Z,71.97
2022-11-30T11:12:13.530Z,72.46
2022-11-30T11:14:40.471Z,73.40
2022-11-30T11:17:23.202Z,72.16
2022-11-30T11:19:51.204Z,72.08
2022-11-30T11:22:26.271Z,72.05
2022-11-30T11:25:23.717Z,72.22
2022-11-30T11:27:56.411Z,71.90
2022-11-30T11:30:26.420Z,71.42
2022-11-30T11:33:12.231Z,71.43
2022-11-30T11:35:47.103Z,72.28
2022-11-30T11:38:27.448Z,71.97
2022-11-30T11:41:16.171Z,71.52
2022-11-30T11:44:10.623Z,71.63
2022-11-30T11:46:55.844Z,71.33
2022-11-30T11:49:43.016Z,71.66
2022-11-30T11:52:13.308Z,71.85
2022-11-30T11:55:19.356Z,71.72
2022-11-30T11:57:53.992Z,71.48
2022-11-30T12:00:23.749Z,71.78
2022-11-30T12:03:28.942Z,71.63
2022-11-30T12:06:05.109Z,71.26
2022-11-30T12:08:34.954Z,71.23
2022-11-30T12:11:27.609Z,71.08
2022-11-30T12:13:54.445Z,71.07
2022-11-30T12:16:38.181Z,70.43
2022-11-30T12:19:25.336Z,70.34
2022-11-30T12:22:04.315Z,70.30
2022-11-30T12:24:40.556Z,70.26
2022-11-30T12:27:14.036Z,69.73
2022-11-30T12:29:55.992Z,70.12
2022-11-30T12:32:35.123Z,70.45
2022-11-30T12:35:10.978Z,70.61
2022-11-30T12:37:56.849Z,70.79
2022-11-30T12:40:34.129Z,71.06
2022-11-30T12:43:16.662Z,71.46
2022-11-30T12:45:48.121Z,70.86
2022-11-30T12:48:54.345Z,70.48
2022-11-30T12:51:29.833Z,70.87
2022-11-30T12:54:00.201Z,71.03
2022-11-30T12:56:35.895Z,70.88
2022-11-30T12:59:31.524Z,70.94
2022-11-30T13:02:17.354Z,70.95
2022-11-30T13:05:05.259Z,70.65
2022-11-30T13:07:40.288Z,69.86
2022-11-30T13:10:18.785Z,70.18
2022-11-30T13:12:48.680Z,70.75
2022-11-30T13:15:24.456Z,70.70
2022-11-30T13:17:52.461Z,69.59
2022-11-30T13:20:46.851Z,70.22
2022-11-30T13:23:42.852Z,69.97
2022-11-30T13:26:18.934Z,69.83
2022-11-30T13:28:50.663Z,70.02
2022-11-30T13:31:25.612Z,70.01
2022-11-30T13:33:55.669Z,69.95
2022-11-30T13:36:43.884Z,69.76
2022-11-30T13:39:27.408Z,69.47
2022-11-30T13:42:06.353Z,69.79
2022-11-30T13:44:39.454Z,70.23
2022-11-30T13:47:28.641Z,70.32
2022-11-30T13:49:59.093Z,69.73
2022-11-30T13:53:03.224Z,69.98
2022-11-30T13:55:36.264Z,69.88
2022-11-30T13:58:07.625Z,69.96
2022-11-30T14:00:34.649Z,70.12
2022-11-30T14:03:24.678Z,70.32
2022-11-30T14:05:56.224Z,69.97
2022-11-30T14:08:23.225Z,70.00
2022-11-30T14:10:54.985Z,69.69
2022-11-30T14:13:23.154Z,70.20
2022-11-30T14:16:00.962Z,70.21
2022-11-30T14:18:43.339Z,70.32
2022-11-30T14:21:33.488Z,70.11
2022-11-30T14:24:19.947Z,70.00
2022-11-30T14:26:48.920Z,70.41
2022-11-30T14:29:22.409Z,70.85
2022-11-30T14:31:59.183Z,71.38
2022-11-30T14:34:32.632Z,71.91
2022-11-30T14:37:29.475Z,72.21
2022-11-30T14:39:57.114Z,71.91
2022-11-30T14:42:29.013Z,72.22
2022-11-30T14:44:56.956Z,72.26
2022-11-30T14:47:31.451Z,72.11
2022-11-30T14:50:02.282Z,71.69
2022-11-30T14:52:51.257Z,71.47
2022-11-30T14:55:39.197Z,71.69
2022-11-30T14:58:23.668Z,71.56
2022-11-30T15:00:51.383Z,72.10
2022-11-30T15:03:26.483Z,72.02
2022-11-30T15:05:56.160Z,71.69
2022-11-30T15:08:24.107Z,71.76
2022-11-30T15:10:51.253Z,72.16
2022-11-30T15:13:19.623Z,72.22
2022-11-30T15:15:56.447Z,73.02
2022-11-30T15:18:25.366Z,72.37
2022-11-30T15:21:00.269Z,71.91
2022-11-30T15:23:27.692Z,71.70
2022-11-30T15:26:05.672Z,71.76
2022-11-30T15:28:34.849Z,71.54
2022-11-30T15:31:05.775Z,71.21
2022-11-30T15:33:43.424Z,70.83
2022-11-30T15:36:31.961Z,71.07
2022-11-30T15:38:57.753Z,71.25
2022-11-30T15:41:25.629Z,71.31
2022-11-30T15:43:54.989Z,72.63
2022-11-30T15:46:32.272Z,71.84
2022-11-30T15:49:32.154Z,72.08
2022-11-30T15:52:00.989Z,72.45
2022-11-30T15:54:49.768Z,72.48
2022-11-30T15:57:17.569Z,72.34
2022-11-30T15:59:44.726Z,72.48
2022-11-30T16:02:32.292Z,72.32
2022-11-30T16:05:14.529Z,71.90
2022-11-30T16:07:55.921Z,71.54
2022-11-30T16:10:37.256Z,71.80
2022-11-30T16:13:04.774Z,71.12
2022-11-30T16:15:35.781Z,71.44
2022-11-30T16:18:08.872Z,71.65
2022-11-30T16:20:35.947Z,71.52
2022-11-30T16:23:06.003Z,71.70
2022-11-30T16:25:33.042Z,72.22
2022-11-30T16:28:00.008Z,72.45
2022-11-30T16:30:26.994Z,72.26
2022-11-30T16:32:54.010Z,72.13
2022-11-30T16:35:24.191Z,73.22
2022-11-30T16:37:51.817Z,72.59
2022-11-30T16:40:19.777Z,73.14
2022-11-30T16:42:49.612Z,72.77
2022-11-30T16:45:22.260Z,73.22
2022-11-30T16:47:50.148Z,73.15
2022-11-30T16:50:17.580Z,73.15
2022-11-30T16:52:45.237Z,72.73
2022-11-30T16:55:16.170Z,72.44
2022-11-30T16:57:43.586Z,72.73
2022-11-30T17:00:13.038Z,72.80
2022-11-30T17:02:46.502Z,72.34
2022-11-30T17:05:14.839Z,72.34
2022-11-30T17:07:42.255Z,72.90
2022-11-30T17:10:09.740Z,72.59
2022-11-30T17:12:36.755Z,72.88
2022-11-30T17:15:04.691Z,72.02
2022-11-30T17:17:32.353Z,71.55
2022-11-30T17:19:59.200Z,71.85
2022-11-30T17:22:26.170Z,71.80
2022-11-30T17:24:53.117Z,71.08
2022-11-30T17:27:20.032Z,71.23
2022-11-30T17:29:46.990Z,70.88
2022-11-30T17:32:13.902Z,71.26
2022-11-30T17:34:40.828Z,71.04
2022-11-30T17:37:07.886Z,71.08
2022-11-30T17:39:36.455Z,70.76
2022-11-30T17:42:03.438Z,71.02
2022-11-30T17:44:30.297Z,70.48
2022-11-30T17:46:57.875Z,70.60
2022-11-30T17:49:24.817Z,69.90
2022-11-30T17:51:52.170Z,70.19
2022-11-30T17:54:19.118Z,70.91
2022-11-30T17:56:46.513Z,70.95
2022-11-30T17:59:13.711Z,71.07
2022-11-30T18:01:40.927Z,70.93
2022-11-30T18:04:09.138Z,70.52
2022-11-30T18:06:36.550Z,70.50
2022-11-30T18:09:03.586Z,70.45
2022-11-30T18:11:30.631Z,70.57
2022-11-30T18:14:00.701Z,70.86
2022-11-30T18:16:29.760Z,70.66
2022-11-30T18:18:58.982Z,70.71
2022-11-30T18:21:29.617Z,70.89
2022-11-30T18:23:58.049Z,70.81
2022-11-30T18:26:26.433Z,70.52
2022-11-30T18:28:54.788Z,70.73
2022-11-30T18:31:22.246Z,70.65
2022-11-30T18:33:49.420Z,70.66
2022-11-30T18:36:16.604Z,70.94
2022-11-30T18:38:44.319Z,70.48
2022-11-30T18:41:11.329Z,71.17
2022-11-30T18:43:38.894Z,71.16
2022-11-30T18:46:08.664Z,71.04
2022-11-30T18:48:36.506Z,71.39
2022-11-30T18:51:15.042Z,71.12
2022-11-30T18:53:42.354Z,71.11
2022-11-30T18:56:10.378Z,71.08
2022-11-30T18:58:37.349Z,70.82
2022-11-30T19:01:13.603Z,70.76
2022-11-30T19:03:40.964Z,70.72
2022-11-30T19:06:09.310Z,70.96
2022-11-30T19:08:37.319Z,71.45
2022-11-30T19:11:10.616Z,71.32
2022-11-30T19:13:38.059Z,71.10
2022-11-30T19:16:11.809Z,71.37
2022-11-30T19:18:39.648Z,71.45
2022-11-30T19:21:11.747Z,71.72
2022-11-30T19:23:40.220Z,71.44
2022-11-30T19:26:08.697Z,71.55
2022-11-30T19:28:36.833Z,71.26
2022-11-30T19:31:08.947Z,71.51
2022-11-30T19:33:38.111Z,71.78
2022-11-30T19:36:07.863Z,71.29
2022-11-30T19:38:35.651Z,71.78
2022-11-30T19:41:07.570Z,71.82
2022-11-30T19:43:35.277Z,72.11
2022-11-30T19:46:13.112Z,72.14
2022-11-30T19:48:41.410Z,71.89
2022-11-30T19:51:16.435Z,72.20
2022-11-30T19:53:45.563Z,72.23
2022-11-30T19:56:15.365Z,72.44
2022-11-30T19:58:44.472Z,72.30
2022-11-30T20:01:16.238Z,72.23
2022-11-30T20:03:45.233Z,72.35
2022-11-30T20:06:12.925Z,72.79
2022-11-30T20:08:40.460Z,72.55
2022-11-30T20:11:09.116Z,72.82
2022-11-30T20:13:36.239Z,72.94
2022-11-30T20:16:08.514Z,72.94
2022-11-30T20:18:35.736Z,73.56
2022-11-30T20:21:20.641Z,73.78
2022-11-30T20:23:48.326Z,73.97
2022-11-30T20:26:20.674Z,73.50
2022-11-30T20:28:50.079Z,73.44
2022-11-30T20:31:19.487Z,73.77
2022-11-30T20:33:46.993Z,74.07
2022-11-30T20:36:15.911Z,74.38
2022-11-30T20:38:43.348Z,74.22
2022-11-30T20:41:12.363Z,74.33
2022-11-30T20:43:39.554Z,74.38
2022-11-30T20:46:17.723Z,74.37
2022-11-30T20:48:45.201Z,74.75
2022-11-30T20:51:30.121Z,75.11
2022-11-30T20:54:00.667Z,75.09
2022-11-30T20:56:27.724Z,75.42
2022-11-30T20:58:54.701Z,75.61
2022-11-30T21:01:23.066Z,75.53
2022-11-30T21:03:50.352Z,74.67
2022-11-30T21:06:17.525Z,74.96
2022-11-30T21:08:44.745Z,74.92
2022-11-30T21:11:14.225Z,75.07
2022-11-30T21:13:43.164Z,75.13
2022-11-30T21:16:11.955Z,75.46
2022-11-30T21:18:40.515Z,74.71
2022-11-30T21:21:10.732Z,75.11
2022-11-30T21:23:37.693Z,75.00
2022-11-30T21:26:06.093Z,75.18
2022-11-30T21:28:37.806Z,75.10
2022-11-30T21:31:06.082Z,75.58
2022-11-30T21:33:33.283Z,75.43
2022-11-30T21:36:00.215Z,74.86
2022-11-30T21:38:27.232Z,75.41
2022-11-30T21:40:59.338Z,75.20
2022-11-30T21:43:27.759Z,75.49
2022-11-30T21:46:01.407Z,75.43
2022-11-30T21:48:29.880Z,75.33
2022-11-30T21:51:00.874Z,75.53
2022-11-30T21:53:28.702Z,75.86
2022-11-30T21:55:56.086Z,75.89
2022-11-30T21:58:23.729Z,76.03
2022-11-30T22:01:01.909Z,76.17
2022-11-30T22:03:29.222Z,75.10
2022-11-30T22:06:01.095Z,75.43
2022-11-30T22:08:29.069Z,75.50
2022-11-30T22:10:59.495Z,75.52
2022-11-30T22:13:26.422Z,75.60
2022-11-30T22:16:10.036Z,75.53
2022-11-30T22:18:37.623Z,75.37
2022-11-30T22:21:12.031Z,75.04
2022-11-30T22:23:42.680Z,75.12
2022-11-30T22:26:16.990Z,74.97
2022-11-30T22:28:46.253Z,74.64
2022-11-30T22:31:14.765Z,74.53
2022-11-30T22:33:42.883Z,74.64
2022-11-30T22:36:15.838Z,74.68
2022-11-30T22:38:42.966Z,74.60
2022-11-30T22:41:12.918Z,74.80
2022-11-30T22:43:40.450Z,74.58
2022-11-30T22:46:12.533Z,75.03
2022-11-30T22:48:39.856Z,74.60
2022-11-30T22:51:09.582Z,74.65
2022-11-30T22:53:37.817Z,75.15
2022-11-30T22:56:09.466Z,75.20
2022-11-30T22:58:36.560Z,75.04
2022-11-30T23:01:12.567Z,74.27
2022-11-30T23:03:40.134Z,75.02
2022-11-30T23:06:07.899Z,74.99
2022-11-30T23:08:36.127Z,74.88
2022-11-30T23:11:08.740Z,75.05
2022-11-30T23:13:35.953Z,74.92
2022-11-30T23:16:04.966Z,75.14
2022-11-30T23:18:40.994Z,75.24
2022-11-30T23:21:25.703Z,75.32
2022-11-30T23:23:53.166Z,75.20
2022-11-30T23:26:23.197Z,75.72
2022-11-30T23:28:51.956Z,76.09
2022-11-30T23:31:34.502Z,75.98
2022-11-30T23:34:05.536Z,75.89
2022-11-30T23:36:33.471Z,75.90
2022-11-30T23:39:09.646Z,76.03
2022-11-30T23:41:36.795Z,76.03
2022-11-30T23:44:03.784Z,75.63
2022-11-30T23:46:31.811Z,76.19
2022-11-30T23:48:58.880Z,76.40
2022-11-30T23:51:25.906Z,76.68
2022-11-30T23:53:53.054Z,75.75
2022-11-30T23:56:20.996Z,76.97
2022-11-30T23:58:48.309Z,76.77
